sensor_id;sensor_type;location;lat;lon;timestamp;pressure;altitude;pressure_sealevel;temperature;humidity
39729;BME280;25402;42.004;23.088;2024-03-25T00:02:14;96174.47;;;2.82;53.17
39729;BME280;25402;42.004;23.088;2024-03-25T00:04:41;96173.31;;;2.77;53.54
39729;BME280;25402;42.004;23.088;2024-03-25T00:07:09;96194.97;;;2.90;53.88
39729;BME280;25402;42.004;23.088;2024-03-25T00:09:35;96168.34;;;2.49;53.99
39729;BME280;25402;42.004;23.088;2024-03-25T00:12:03;96191.69;;;2.63;53.63
39729;BME280;25402;42.004;23.088;2024-03-25T00:14:30;96193.84;;;2.60;53.34
39729;BME280;25402;42.004;23.088;2024-03-25T00:16:57;96221.56;;;2.67;53.46
39729;BME280;25402;42.004;23.088;2024-03-25T00:19:23;96235.16;;;3.04;52.39
39729;BME280;25402;42.004;23.088;2024-03-25T00:21:52;96245.31;;;3.25;52.38
39729;BME280;25402;42.004;23.088;2024-03-25T00:24:18;96261.66;;;3.38;52.08
39729;BME280;25402;42.004;23.088;2024-03-25T00:26:45;96255.25;;;3.56;51.73
39729;BME280;25402;42.004;23.088;2024-03-25T00:29:11;96253.84;;;3.76;51.51
39729;BME280;25402;42.004;23.088;2024-03-25T00:31:38;96237.72;;;3.92;51.49
39729;BME280;25402;42.004;23.088;2024-03-25T00:34:04;96231.22;;;4.09;51.38
39729;BME280;25402;42.004;23.088;2024-03-25T00:36:31;96223.81;;;4.20;51.55
39729;BME280;25402;42.004;23.088;2024-03-25T00:38:59;96202.75;;;4.17;50.25
39729;BME280;25402;42.004;23.088;2024-03-25T00:41:26;96168.41;;;3.97;50.35
39729;BME280;25402;42.004;23.088;2024-03-25T00:43:52;96198.41;;;4.15;50.64
39729;BME280;25402;42.004;23.088;2024-03-25T00:46:19;96199.75;;;4.11;50.75
39729;BME280;25402;42.004;23.088;2024-03-25T00:48:45;96198.31;;;4.09;50.26
39729;BME280;25402;42.004;23.088;2024-03-25T00:51:12;96208.88;;;4.02;50.10
39729;BME280;25402;42.004;23.088;2024-03-25T00:53:38;96207.69;;;4.05;50.43
39729;BME280;25402;42.004;23.088;2024-03-25T00:56:07;96208.44;;;4.13;50.45
39729;BME280;25402;42.004;23.088;2024-03-25T00:58:33;96219.88;;;4.07;51.07
39729;BME280;25402;42.004;23.088;2024-03-25T01:01:01;96222.59;;;3.99;51.50
39729;BME280;25402;42.004;23.088;2024-03-25T01:03:27;96222.00;;;4.12;51.41
39729;BME280;25402;42.004;23.088;2024-03-25T01:05:54;96221.72;;;4.07;52.08
39729;BME280;25402;42.004;23.088;2024-03-25T01:08:21;96220.16;;;4.12;51.98
39729;BME280;25402;42.004;23.088;2024-03-25T01:10:48;96208.63;;;4.12;51.90
39729;BME280;25402;42.004;23.088;2024-03-25T01:13:16;96232.59;;;4.28;52.19
39729;BME280;25402;42.004;23.088;2024-03-25T01:15:43;96216.78;;;4.19;52.08
39729;BME280;25402;42.004;23.088;2024-03-25T01:18:10;96225.00;;;4.40;51.83
39729;BME280;25402;42.004;23.088;2024-03-25T01:20:37;96249.34;;;4.53;51.77
39729;BME280;25402;42.004;23.088;2024-03-25T01:23:03;96239.19;;;4.63;51.61
39729;BME280;25402;42.004;23.088;2024-03-25T01:25:33;96242.47;;;4.73;51.21
39729;BME280;25402;42.004;23.088;2024-03-25T01:27:59;96249.53;;;4.89;50.85
39729;BME280;25402;42.004;23.088;2024-03-25T01:30:28;96248.34;;;4.92;50.79
39729;BME280;25402;42.004;23.088;2024-03-25T01:32:55;96240.50;;;4.90;50.79
39729;BME280;25402;42.004;23.088;2024-03-25T01:35:23;96232.00;;;4.87;50.39
39729;BME280;25402;42.004;23.088;2024-03-25T01:37:49;96233.47;;;5.04;50.02
39729;BME280;25402;42.004;23.088;2024-03-25T01:40:16;96224.00;;;5.16;49.84
39729;BME280;25402;42.004;23.088;2024-03-25T01:42:42;96207.72;;;5.03;48.30
39729;BME280;25402;42.004;23.088;2024-03-25T01:45:10;96205.47;;;4.92;48.10
39729;BME280;25402;42.004;23.088;2024-03-25T01:47:39;96195.59;;;4.92;47.76
39729;BME280;25402;42.004;23.088;2024-03-25T01:50:06;96194.94;;;5.05;47.77
39729;BME280;25402;42.004;23.088;2024-03-25T01:52:34;96197.19;;;4.64;47.58
39729;BME280;25402;42.004;23.088;2024-03-25T01:55:00;96200.44;;;4.74;47.60
39729;BME280;25402;42.004;23.088;2024-03-25T01:57:29;96191.81;;;4.64;47.60
39729;BME280;25402;42.004;23.088;2024-03-25T01:59:55;96188.53;;;4.76;47.70
39729;BME280;25402;42.004;23.088;2024-03-25T02:02:24;96208.25;;;4.83;48.19
39729;BME280;25402;42.004;23.088;2024-03-25T02:04:52;96211.78;;;4.99;48.99
39729;BME280;25402;42.004;23.088;2024-03-25T02:07:20;96190.88;;;4.94;49.35
39729;BME280;25402;42.004;23.088;2024-03-25T02:09:48;96211.50;;;5.08;49.87
39729;BME280;25402;42.004;23.088;2024-03-25T02:12:16;96211.59;;;5.15;49.81
39729;BME280;25402;42.004;23.088;2024-03-25T02:14:42;96202.09;;;5.12;49.88
39729;BME280;25402;42.004;23.088;2024-03-25T02:17:09;96212.34;;;5.09;49.97
39729;BME280;25402;42.004;23.088;2024-03-25T02:19:37;96209.34;;;5.04;49.78
39729;BME280;25402;42.004;23.088;2024-03-25T02:22:07;96202.63;;;4.93;49.90
39729;BME280;25402;42.004;23.088;2024-03-25T02:24:34;96191.34;;;4.83;49.80
39729;BME280;25402;42.004;23.088;2024-03-25T02:27:03;96206.13;;;4.94;49.74
39729;BME280;25402;42.004;23.088;2024-03-25T02:29:33;96201.53;;;5.02;49.81
39729;BME280;25402;42.004;23.088;2024-03-25T02:32:00;96204.84;;;5.04;49.75
39729;BME280;25402;42.004;23.088;2024-03-25T02:34:26;96210.59;;;5.16;49.80
39729;BME280;25402;42.004;23.088;2024-03-25T02:36:54;96212.53;;;5.22;49.73
39729;BME280;25402;42.004;23.088;2024-03-25T02:39:20;96210.78;;;5.29;49.64
39729;BME280;25402;42.004;23.088;2024-03-25T02:41:50;96209.13;;;5.28;49.68
39729;BME280;25402;42.004;23.088;2024-03-25T02:44:19;96199.41;;;5.27;49.50
39729;BME280;25402;42.004;23.088;2024-03-25T02:46:47;96220.19;;;5.40;49.40
39729;BME280;25402;42.004;23.088;2024-03-25T02:49:13;96214.84;;;5.40;49.36
39729;BME280;25402;42.004;23.088;2024-03-25T02:51:41;96193.38;;;5.25;49.31
39729;BME280;25402;42.004;23.088;2024-03-25T02:54:07;96224.19;;;5.44;48.81
39729;BME280;25402;42.004;23.088;2024-03-25T02:56:34;96225.66;;;5.46;48.63
39729;BME280;25402;42.004;23.088;2024-03-25T02:59:01;96210.31;;;5.40;48.29
39729;BME280;25402;42.004;23.088;2024-03-25T03:01:30;96221.31;;;5.45;47.79
39729;BME280;25402;42.004;23.088;2024-03-25T03:03:56;96230.66;;;5.49;47.95
39729;BME280;25402;42.004;23.088;2024-03-25T03:06:24;96227.03;;;5.42;47.66
39729;BME280;25402;42.004;23.088;2024-03-25T03:08:50;96200.06;;;5.29;47.77
39729;BME280;25402;42.004;23.088;2024-03-25T03:11:17;96253.38;;;5.53;47.79
39729;BME280;25402;42.004;23.088;2024-03-25T03:13:43;96246.53;;;5.51;47.72
39729;BME280;25402;42.004;23.088;2024-03-25T03:16:11;96245.44;;;5.45;47.29
39729;BME280;25402;42.004;23.088;2024-03-25T03:18:39;96241.75;;;5.46;47.74
39729;BME280;25402;42.004;23.088;2024-03-25T03:21:06;96258.38;;;5.57;47.57
39729;BME280;25402;42.004;23.088;2024-03-25T03:23:32;96248.13;;;5.60;47.12
39729;BME280;25402;42.004;23.088;2024-03-25T03:25:59;96238.13;;;5.54;47.12
39729;BME280;25402;42.004;23.088;2024-03-25T03:28:26;96246.66;;;5.58;47.11
39729;BME280;25402;42.004;23.088;2024-03-25T03:30:54;96238.31;;;5.52;47.11
39729;BME280;25402;42.004;23.088;2024-03-25T03:33:20;96244.69;;;5.51;47.49
39729;BME280;25402;42.004;23.088;2024-03-25T03:35:49;96250.34;;;5.57;47.36
39729;BME280;25402;42.004;23.088;2024-03-25T03:38:15;96257.19;;;5.59;47.26
39729;BME280;25402;42.004;23.088;2024-03-25T03:40:43;96256.00;;;5.62;47.88
39729;BME280;25402;42.004;23.088;2024-03-25T03:43:10;96265.97;;;5.68;47.79
39729;BME280;25402;42.004;23.088;2024-03-25T03:45:38;96246.66;;;5.58;47.79
39729;BME280;25402;42.004;23.088;2024-03-25T03:48:05;96273.09;;;5.75;47.79
39729;BME280;25402;42.004;23.088;2024-03-25T03:50:32;96250.97;;;5.73;47.94
39729;BME280;25402;42.004;23.088;2024-03-25T03:53:00;96226.38;;;5.70;48.41
39729;BME280;25402;42.004;23.088;2024-03-25T03:55:27;96244.97;;;5.71;48.41
39729;BME280;25402;42.004;23.088;2024-03-25T03:57:53;96258.38;;;5.71;48.67
39729;BME280;25402;42.004;23.088;2024-03-25T04:00:20;96272.06;;;5.76;48.63
39729;BME280;25402;42.004;23.088;2024-03-25T04:02:47;96251.66;;;5.61;48.76
39729;BME280;25402;42.004;23.088;2024-03-25T04:05:14;96269.22;;;5.63;48.76
39729;BME280;25402;42.004;23.088;2024-03-25T04:07:40;96264.88;;;5.47;48.02
39729;BME280;25402;42.004;23.088;2024-03-25T04:10:09;96256.34;;;5.29;48.01
39729;BME280;25402;42.004;23.088;2024-03-25T04:12:36;96302.13;;;5.42;47.86
39729;BME280;25402;42.004;23.088;2024-03-25T04:15:04;96305.66;;;5.43;47.64
39729;BME280;25402;42.004;23.088;2024-03-25T04:17:30;96291.28;;;5.21;47.80
39729;BME280;25402;42.004;23.088;2024-03-25T04:20:00;96287.03;;;5.12;47.86
39729;BME280;25402;42.004;23.088;2024-03-25T04:22:26;96295.38;;;5.17;48.00
39729;BME280;25402;42.004;23.088;2024-03-25T04:24:53;96311.94;;;4.98;48.81
39729;BME280;25402;42.004;23.088;2024-03-25T04:27:21;96328.13;;;5.04;48.88
39729;BME280;25402;42.004;23.088;2024-03-25T04:29:50;96321.53;;;4.92;48.79
39729;BME280;25402;42.004;23.088;2024-03-25T04:32:16;96317.38;;;4.90;48.67
39729;BME280;25402;42.004;23.088;2024-03-25T04:34:44;96335.53;;;5.02;48.59
39729;BME280;25402;42.004;23.088;2024-03-25T04:37:11;96333.38;;;5.35;52.25
39729;BME280;25402;42.004;23.088;2024-03-25T04:39:38;96321.97;;;6.00;51.20
39729;BME280;25402;42.004;23.088;2024-03-25T04:42:05;96303.34;;;6.49;49.79
39729;BME280;25402;42.004;23.088;2024-03-25T04:44:55;96234.88;;;6.45;48.75
39729;BME280;25402;42.004;23.088;2024-03-25T04:47:21;96340.69;;;7.51;46.99
39729;BME280;25402;42.004;23.088;2024-03-25T04:49:47;96332.97;;;7.69;46.47
39729;BME280;25402;42.004;23.088;2024-03-25T04:52:14;96325.94;;;8.09;45.38
39729;BME280;25402;42.004;23.088;2024-03-25T04:54:41;96328.72;;;8.22;44.42
39729;BME280;25402;42.004;23.088;2024-03-25T04:57:10;96336.28;;;8.47;44.18
39729;BME280;25402;42.004;23.088;2024-03-25T04:59:41;96336.09;;;8.55;41.98
39729;BME280;25402;42.004;23.088;2024-03-25T05:08:53;96350.53;;;9.01;41.40
39729;BME280;25402;42.004;23.088;2024-03-25T05:11:19;96343.34;;;9.28;40.89
39729;BME280;25402;42.004;23.088;2024-03-25T05:13:45;96328.38;;;9.32;40.46
39729;BME280;25402;42.004;23.088;2024-03-25T05:16:12;96346.88;;;9.42;40.42
39729;BME280;25402;42.004;23.088;2024-03-25T05:18:39;96353.50;;;9.46;40.12
39729;BME280;25402;42.004;23.088;2024-03-25T05:21:06;96351.84;;;9.58;39.91
39729;BME280;25402;42.004;23.088;2024-03-25T05:23:33;96357.44;;;9.83;39.80
39729;BME280;25402;42.004;23.088;2024-03-25T05:26:00;96351.78;;;10.04;39.28
39729;BME280;25402;42.004;23.088;2024-03-25T05:28:26;96359.25;;;10.16;38.76
39729;BME280;25402;42.004;23.088;2024-03-25T05:30:53;96351.59;;;9.80;38.22
39729;BME280;25402;42.004;23.088;2024-03-25T05:33:19;96372.19;;;9.54;38.40
39729;BME280;25402;42.004;23.088;2024-03-25T05:35:46;96361.16;;;9.16;38.93
39729;BME280;25402;42.004;23.088;2024-03-25T05:38:14;96375.44;;;8.97;39.20
39729;BME280;25402;42.004;23.088;2024-03-25T05:40:41;96382.78;;;8.68;39.92
39729;BME280;25402;42.004;23.088;2024-03-25T05:43:10;96388.94;;;8.43;40.39
39729;BME280;25402;42.004;23.088;2024-03-25T05:46:00;96395.44;;;8.20;40.16
39729;BME280;25402;42.004;23.088;2024-03-25T05:52:05;96246.59;;;6.80;39.39
39729;BME280;25402;42.004;23.088;2024-03-25T05:54:34;96232.78;;;6.62;39.85
39729;BME280;25402;42.004;23.088;2024-03-25T05:57:00;96396.63;;;7.55;40.45
39729;BME280;25402;42.004;23.088;2024-03-25T05:59:28;96374.22;;;7.48;40.06
39729;BME280;25402;42.004;23.088;2024-03-25T06:01:55;96328.63;;;6.98;40.18
39729;BME280;25402;42.004;23.088;2024-03-25T06:04:23;96419.28;;;7.40;40.43
39729;BME280;25402;42.004;23.088;2024-03-25T06:06:50;96415.34;;;7.42;40.14
39729;BME280;25402;42.004;23.088;2024-03-25T06:09:16;96426.75;;;7.44;40.30
39729;BME280;25402;42.004;23.088;2024-03-25T06:11:42;96438.09;;;7.18;40.40
39729;BME280;25402;42.004;23.088;2024-03-25T06:14:08;96431.25;;;7.01;40.71
39729;BME280;25402;42.004;23.088;2024-03-25T06:16:37;96428.34;;;6.81;41.44
39729;BME280;25402;42.004;23.088;2024-03-25T06:19:03;96432.09;;;6.51;41.66
39729;BME280;25402;42.004;23.088;2024-03-25T06:21:29;96422.03;;;6.23;42.46
39729;BME280;25402;42.004;23.088;2024-03-25T06:23:57;96435.47;;;6.23;42.36
39729;BME280;25402;42.004;23.088;2024-03-25T06:26:23;96420.47;;;6.29;41.95
39729;BME280;25402;42.004;23.088;2024-03-25T06:28:49;96429.56;;;6.13;41.59
39729;BME280;25402;42.004;23.088;2024-03-25T06:31:15;96423.72;;;6.10;41.56
39729;BME280;25402;42.004;23.088;2024-03-25T06:34:02;96415.72;;;6.02;41.84
39729;BME280;25402;42.004;23.088;2024-03-25T06:36:41;96444.88;;;6.49;41.02
39729;BME280;25402;42.004;23.088;2024-03-25T06:39:07;96445.63;;;6.72;40.92
39729;BME280;25402;42.004;23.088;2024-03-25T06:41:33;96458.06;;;6.29;40.57
39729;BME280;25402;42.004;23.088;2024-03-25T06:43:59;96448.25;;;6.21;40.77
39729;BME280;25402;42.004;23.088;2024-03-25T06:46:25;96434.53;;;6.02;40.08
39729;BME280;25402;42.004;23.088;2024-03-25T06:48:52;96446.75;;;6.04;40.25
39729;BME280;25402;42.004;23.088;2024-03-25T06:51:19;96467.09;;;5.99;40.83
39729;BME280;25402;42.004;23.088;2024-03-25T06:53:45;96467.84;;;5.93;39.88
39729;BME280;25402;42.004;23.088;2024-03-25T06:56:15;96477.78;;;5.84;39.81
39729;BME280;25402;42.004;23.088;2024-03-25T06:58:42;96482.78;;;5.95;40.47
39729;BME280;25402;42.004;23.088;2024-03-25T07:01:08;96477.97;;;6.05;40.54
39729;BME280;25402;42.004;23.088;2024-03-25T07:03:35;96465.00;;;6.09;39.98
39729;BME280;25402;42.004;23.088;2024-03-25T07:06:02;96464.66;;;5.51;36.63
39729;BME280;25402;42.004;23.088;2024-03-25T07:08:32;96474.19;;;5.54;36.55
39729;BME280;25402;42.004;23.088;2024-03-25T07:10:58;96495.00;;;5.75;36.23
39729;BME280;25402;42.004;23.088;2024-03-25T07:13:24;96507.78;;;5.50;35.34
39729;BME280;25402;42.004;23.088;2024-03-25T07:15:50;96505.06;;;5.27;35.64
39729;BME280;25402;42.004;23.088;2024-03-25T07:18:17;96487.81;;;5.30;36.85
39729;BME280;25402;42.004;23.088;2024-03-25T07:20:43;96484.94;;;5.31;37.10
39729;BME280;25402;42.004;23.088;2024-03-25T07:23:11;96529.97;;;5.36;36.75
39729;BME280;25402;42.004;23.088;2024-03-25T07:25:39;96476.19;;;4.83;36.34
39729;BME280;25402;42.004;23.088;2024-03-25T07:28:06;96512.28;;;5.27;36.64
39729;BME280;25402;42.004;23.088;2024-03-25T07:30:33;96507.06;;;5.33;35.82
39729;BME280;25402;42.004;23.088;2024-03-25T07:32:59;96512.69;;;5.15;35.53
39729;BME280;25402;42.004;23.088;2024-03-25T07:35:28;96502.22;;;5.29;35.58
39729;BME280;25402;42.004;23.088;2024-03-25T07:37:54;96546.22;;;5.42;35.24
39729;BME280;25402;42.004;23.088;2024-03-25T07:40:26;96456.09;;;4.88;36.32
39729;BME280;25402;42.004;23.088;2024-03-25T07:42:55;96480.97;;;4.96;35.79
39729;BME280;25402;42.004;23.088;2024-03-25T07:45:25;96515.22;;;5.17;36.16
39729;BME280;25402;42.004;23.088;2024-03-25T07:47:51;96480.38;;;4.86;36.20
39729;BME280;25402;42.004;23.088;2024-03-25T07:50:21;96522.03;;;5.19;35.13
39729;BME280;25402;42.004;23.088;2024-03-25T07:52:51;96527.84;;;5.31;34.74
39729;BME280;25402;42.004;23.088;2024-03-25T07:55:21;96466.22;;;5.00;35.16
39729;BME280;25402;42.004;23.088;2024-03-25T07:57:53;96463.88;;;5.20;35.41
39729;BME280;25402;42.004;23.088;2024-03-25T08:03:26;96443.22;;;4.83;35.24
39729;BME280;25402;42.004;23.088;2024-03-25T08:05:52;96489.84;;;4.97;34.64
39729;BME280;25402;42.004;23.088;2024-03-25T08:08:19;96515.94;;;5.34;34.73
39729;BME280;25402;42.004;23.088;2024-03-25T08:10:47;96548.13;;;5.57;34.86
39729;BME280;25402;42.004;23.088;2024-03-25T08:27:07;96552.28;;;6.05;36.78
39729;BME280;25402;42.004;23.088;2024-03-25T08:29:33;96555.22;;;6.47;36.02
39729;BME280;25402;42.004;23.088;2024-03-25T08:31:59;96528.66;;;6.38;35.60
39729;BME280;25402;42.004;23.088;2024-03-25T08:34:26;96553.44;;;7.28;38.79
39729;BME280;25402;42.004;23.088;2024-03-25T08:36:52;96556.44;;;7.54;35.78
39729;BME280;25402;42.004;23.088;2024-03-25T08:39:19;96554.91;;;7.67;36.15
39729;BME280;25402;42.004;23.088;2024-03-25T08:41:46;96558.13;;;7.55;34.38
39729;BME280;25402;42.004;23.088;2024-03-25T08:44:14;96560.63;;;7.78;33.93
39729;BME280;25402;42.004;23.088;2024-03-25T08:46:40;96533.16;;;8.11;34.01
39729;BME280;25402;42.004;23.088;2024-03-25T08:49:06;96572.66;;;8.25;33.50
39729;BME280;25402;42.004;23.088;2024-03-25T08:51:32;96554.25;;;8.07;32.50
39729;BME280;25402;42.004;23.088;2024-03-25T08:53:58;96570.25;;;8.37;32.83
39729;BME280;25402;42.004;23.088;2024-03-25T08:56:24;96559.53;;;8.15;32.61
39729;BME280;25402;42.004;23.088;2024-03-25T08:58:50;96555.28;;;8.06;31.36
39729;BME280;25402;42.004;23.088;2024-03-25T09:01:17;96573.56;;;8.32;31.55
39729;BME280;25402;42.004;23.088;2024-03-25T09:03:43;96570.13;;;8.45;32.16
39729;BME280;25402;42.004;23.088;2024-03-25T09:06:09;96572.06;;;8.08;30.34
39729;BME280;25402;42.004;23.088;2024-03-25T09:08:35;96556.69;;;8.23;31.91
39729;BME280;25402;42.004;23.088;2024-03-25T09:11:01;96536.03;;;8.30;31.19
39729;BME280;25402;42.004;23.088;2024-03-25T09:13:30;96555.47;;;8.05;30.19
39729;BME280;25402;42.004;23.088;2024-03-25T09:15:57;96561.44;;;8.21;30.89
39729;BME280;25402;42.004;23.088;2024-03-25T09:18:24;96550.06;;;8.54;30.62
39729;BME280;25402;42.004;23.088;2024-03-25T09:20:50;96540.97;;;8.55;28.95
39729;BME280;25402;42.004;23.088;2024-03-25T09:23:16;96541.13;;;8.81;29.77
39729;BME280;25402;42.004;23.088;2024-03-25T09:25:53;96562.34;;;9.32;29.06
39729;BME280;25402;42.004;23.088;2024-03-25T09:28:19;96567.38;;;9.42;28.74
39729;BME280;25402;42.004;23.088;2024-03-25T09:30:45;96562.88;;;9.14;28.30
39729;BME280;25402;42.004;23.088;2024-03-25T09:33:12;96573.56;;;8.60;29.07
39729;BME280;25402;42.004;23.088;2024-03-25T09:46:02;96463.63;;;8.96;28.35
39729;BME280;25402;42.004;23.088;2024-03-25T09:48:30;96552.72;;;8.82;27.55
39729;BME280;25402;42.004;23.088;2024-03-25T09:50:58;96451.38;;;8.53;28.97
39729;BME280;25402;42.004;23.088;2024-03-25T09:53:25;96491.50;;;9.17;28.00
39729;BME280;25402;42.004;23.088;2024-03-25T09:55:51;96446.75;;;8.81;27.36
39729;BME280;25402;42.004;23.088;2024-03-25T10:14:23;96574.00;;;9.39;27.79
39729;BME280;25402;42.004;23.088;2024-03-25T10:16:53;96537.84;;;9.27;28.95
39729;BME280;25402;42.004;23.088;2024-03-25T10:22:27;96500.91;;;9.34;27.12
39729;BME280;25402;42.004;23.088;2024-03-25T10:28:15;96511.75;;;8.99;26.87
39729;BME280;25402;42.004;23.088;2024-03-25T10:30:47;96578.22;;;9.61;26.97
39729;BME280;25402;42.004;23.088;2024-03-25T10:33:14;96585.56;;;9.94;27.66
39729;BME280;25402;42.004;23.088;2024-03-25T10:35:41;96613.41;;;9.27;27.00
39729;BME280;25402;42.004;23.088;2024-03-25T10:38:10;96590.94;;;9.20;28.06
39729;BME280;25402;42.004;23.088;2024-03-25T10:40:37;96594.81;;;9.52;27.79
39729;BME280;25402;42.004;23.088;2024-03-25T10:43:05;96583.97;;;10.39;26.92
39729;BME280;25402;42.004;23.088;2024-03-25T10:45:34;96630.34;;;10.56;26.89
39729;BME280;25402;42.004;23.088;2024-03-25T10:48:08;96592.94;;;10.53;26.23
39729;BME280;25402;42.004;23.088;2024-03-25T10:50:36;96578.78;;;10.64;27.50
39729;BME280;25402;42.004;23.088;2024-03-25T10:53:07;96606.66;;;10.77;25.87
39729;BME280;25402;42.004;23.088;2024-03-25T10:55:35;96614.44;;;9.73;26.96
39729;BME280;25402;42.004;23.088;2024-03-25T10:58:04;96594.31;;;9.28;27.74
39729;BME280;25402;42.004;23.088;2024-03-25T11:00:34;96605.41;;;9.12;28.10
39729;BME280;25402;42.004;23.088;2024-03-25T11:03:06;96613.06;;;9.09;28.40
39729;BME280;25402;42.004;23.088;2024-03-25T11:05:35;96603.94;;;9.10;27.86
39729;BME280;25402;42.004;23.088;2024-03-25T11:08:10;96610.63;;;9.14;27.74
39729;BME280;25402;42.004;23.088;2024-03-25T11:10:40;96600.06;;;9.19;27.71
39729;BME280;25402;42.004;23.088;2024-03-25T11:13:11;96612.59;;;9.26;27.57
39729;BME280;25402;42.004;23.088;2024-03-25T11:15:39;96617.59;;;9.36;28.38
39729;BME280;25402;42.004;23.088;2024-03-25T11:18:12;96594.22;;;8.53;26.61
39729;BME280;25402;42.004;23.088;2024-03-25T11:20:39;96597.44;;;8.63;27.35
39729;BME280;25402;42.004;23.088;2024-03-25T11:23:11;96595.03;;;9.09;26.45
39729;BME280;25402;42.004;23.088;2024-03-25T11:25:40;96595.97;;;9.29;25.53
39729;BME280;25402;42.004;23.088;2024-03-25T11:28:08;96585.69;;;9.53;24.95
39729;BME280;25402;42.004;23.088;2024-03-25T11:30:36;96615.28;;;9.33;24.89
39729;BME280;25402;42.004;23.088;2024-03-25T11:33:03;96602.13;;;9.17;25.37
39729;BME280;25402;42.004;23.088;2024-03-25T11:35:37;96598.06;;;9.27;25.49
39729;BME280;25402;42.004;23.088;2024-03-25T11:38:03;96602.91;;;9.11;25.04
39729;BME280;25402;42.004;23.088;2024-03-25T11:40:30;96587.13;;;8.45;26.41
39729;BME280;25402;42.004;23.088;2024-03-25T11:42:56;96608.06;;;8.71;27.03
39729;BME280;25402;42.004;23.088;2024-03-25T11:45:22;96605.59;;;8.76;26.71
39729;BME280;25402;42.004;23.088;2024-03-25T11:47:49;96590.97;;;8.57;27.09
39729;BME280;25402;42.004;23.088;2024-03-25T11:50:19;96585.72;;;8.77;26.70
39729;BME280;25402;42.004;23.088;2024-03-25T11:52:47;96613.16;;;8.87;26.54
39729;BME280;25402;42.004;23.088;2024-03-25T11:55:29;96580.84;;;9.35;26.93
39729;BME280;25402;42.004;23.088;2024-03-25T11:58:04;96601.88;;;10.20;25.77
39729;BME280;25402;42.004;23.088;2024-03-25T12:00:52;96460.69;;;9.79;25.23
39729;BME280;25402;42.004;23.088;2024-03-25T12:03:22;96498.94;;;9.89;24.18
39729;BME280;25402;42.004;23.088;2024-03-25T12:05:49;96593.03;;;9.92;24.23
39729;BME280;25402;42.004;23.088;2024-03-25T12:08:17;96603.34;;;9.62;25.42
39729;BME280;25402;42.004;23.088;2024-03-25T12:10:43;96621.44;;;9.61;26.39
39729;BME280;25402;42.004;23.088;2024-03-25T12:13:28;96614.25;;;9.34;26.62
39729;BME280;25402;42.004;23.088;2024-03-25T12:15:54;96605.97;;;9.35;25.93
39729;BME280;25402;42.004;23.088;2024-03-25T12:18:22;96625.44;;;9.31;24.76
39729;BME280;25402;42.004;23.088;2024-03-25T12:20:48;96631.63;;;9.18;24.69
39729;BME280;25402;42.004;23.088;2024-03-25T12:23:14;96619.38;;;9.63;24.81
39729;BME280;25402;42.004;23.088;2024-03-25T12:25:48;96607.91;;;10.22;24.42
39729;BME280;25402;42.004;23.088;2024-03-25T12:28:15;96605.00;;;10.37;23.98
39729;BME280;25402;42.004;23.088;2024-03-25T12:30:49;96592.63;;;9.95;24.64
39729;BME280;25402;42.004;23.088;2024-03-25T12:33:15;96599.06;;;9.94;24.39
39729;BME280;25402;42.004;23.088;2024-03-25T12:35:42;96636.25;;;9.31;25.31
39729;BME280;25402;42.004;23.088;2024-03-25T12:38:08;96614.56;;;8.83;27.01
39729;BME280;25402;42.004;23.088;2024-03-25T12:40:34;96639.41;;;7.87;26.95
39729;BME280;25402;42.004;23.088;2024-03-25T12:43:02;96626.72;;;7.81;27.63
39729;BME280;25402;42.004;23.088;2024-03-25T12:45:28;96644.81;;;7.72;28.87
39729;BME280;25402;42.004;23.088;2024-03-25T12:47:56;96611.75;;;7.78;28.68
39729;BME280;25402;42.004;23.088;2024-03-25T12:50:22;96633.81;;;8.24;28.14
39729;BME280;25402;42.004;23.088;2024-03-25T12:52:48;96633.63;;;8.54;27.29
39729;BME280;25402;42.004;23.088;2024-03-25T12:55:14;96622.44;;;9.13;26.62
39729;BME280;25402;42.004;23.088;2024-03-25T12:57:40;96627.06;;;9.66;26.07
39729;BME280;25402;42.004;23.088;2024-03-25T13:00:09;96620.88;;;9.31;26.36
39729;BME280;25402;42.004;23.088;2024-03-25T13:02:35;96632.91;;;9.29;26.51
39729;BME280;25402;42.004;23.088;2024-03-25T13:05:07;96641.09;;;9.08;26.25
39729;BME280;25402;42.004;23.088;2024-03-25T13:07:48;96584.81;;;9.04;26.39
39729;BME280;25402;42.004;23.088;2024-03-25T13:10:15;96560.81;;;8.75;26.44
39729;BME280;25402;42.004;23.088;2024-03-25T13:12:46;96637.56;;;9.48;25.83
39729;BME280;25402;42.004;23.088;2024-03-25T13:15:38;96637.22;;;9.58;26.00
39729;BME280;25402;42.004;23.088;2024-03-25T13:18:06;96642.84;;;9.63;26.24
39729;BME280;25402;42.004;23.088;2024-03-25T13:20:32;96639.00;;;9.98;25.58
39729;BME280;25402;42.004;23.088;2024-03-25T13:22:58;96633.91;;;10.43;25.23
39729;BME280;25402;42.004;23.088;2024-03-25T13:25:24;96640.75;;;10.92;24.09
39729;BME280;25402;42.004;23.088;2024-03-25T13:27:51;96647.81;;;11.26;24.17
39729;BME280;25402;42.004;23.088;2024-03-25T13:30:17;96647.06;;;11.63;23.38
39729;BME280;25402;42.004;23.088;2024-03-25T13:32:44;96625.25;;;11.45;23.62
39729;BME280;25402;42.004;23.088;2024-03-25T13:35:11;96620.06;;;11.37;23.14
39729;BME280;25402;42.004;23.088;2024-03-25T13:37:37;96644.72;;;11.73;22.96
39729;BME280;25402;42.004;23.088;2024-03-25T13:40:04;96645.50;;;11.94;22.59
39729;BME280;25402;42.004;23.088;2024-03-25T13:42:30;96628.84;;;11.83;22.25
39729;BME280;25402;42.004;23.088;2024-03-25T13:44:56;96646.50;;;11.48;23.13
39729;BME280;25402;42.004;23.088;2024-03-25T13:47:22;96631.59;;;10.93;23.21
39729;BME280;25402;42.004;23.088;2024-03-25T13:50:00;96659.84;;;10.11;23.47
39729;BME280;25402;42.004;23.088;2024-03-25T13:52:26;96660.78;;;9.84;23.40
39729;BME280;25402;42.004;23.088;2024-03-25T13:54:52;96652.78;;;9.62;24.34
39729;BME280;25402;42.004;23.088;2024-03-25T13:57:18;96666.72;;;9.59;24.54
39729;BME280;25402;42.004;23.088;2024-03-25T13:59:44;96668.34;;;9.54;24.80
39729;BME280;25402;42.004;23.088;2024-03-25T14:02:10;96652.19;;;9.67;23.66
39729;BME280;25402;42.004;23.088;2024-03-25T14:04:36;96651.41;;;9.73;24.54